sensor_id;sensor_type;location;lat;lon;timestamp;temperature;humidity
70076;DHT22;63241;51.056;3.698;2023-03-21T00:01:00;11.30;99.90
70076;DHT22;63241;51.056;3.698;2023-03-21T00:07:13;11.30;99.90
70076;DHT22;63241;51.056;3.698;2023-03-21T00:09:41;11.30;99.90
70076;DHT22;63241;51.056;3.698;2023-03-21T00:12:08;11.30;99.90
70076;DHT22;63241;51.056;3.698;2023-03-21T00:14:37;11.30;99.90
70076;DHT22;63241;51.056;3.698;2023-03-21T00:17:34;11.40;99.90
70076;DHT22;63241;51.056;3.698;2023-03-21T00:20:10;11.40;99.90
70076;DHT22;63241;51.056;3.698;2023-03-21T00:22:40;11.30;99.90
70076;DHT22;63241;51.056;3.698;2023-03-21T00:25:09;11.40;99.90
70076;DHT22;63241;51.056;3.698;2023-03-21T00:27:37;11.40;99.90
70076;DHT22;63241;51.056;3.698;2023-03-21T00:30:18;11.50;99.90
70076;DHT22;63241;51.056;3.698;2023-03-21T00:33:11;11.40;99.90
70076;DHT22;63241;51.056;3.698;2023-03-21T00:35:41;11.40;99.90
70076;DHT22;63241;51.056;3.698;2023-03-21T00:38:10;11.30;99.90
70076;DHT22;63241;51.056;3.698;2023-03-21T00:40:38;11.30;99.90
70076;DHT22;63241;51.056;3.698;2023-03-21T00:46:50;11.40;99.90
70076;DHT22;63241;51.056;3.698;2023-03-21T00:49:18;11.60;99.90
70076;DHT22;63241;51.056;3.698;2023-03-21T00:51:49;11.50;99.90
70076;DHT22;63241;51.056;3.698;2023-03-21T00:54:17;11.50;99.90
70076;DHT22;63241;51.056;3.698;2023-03-21T00:56:53;11.50;99.90
70076;DHT22;63241;51.056;3.698;2023-03-21T01:02:13;11.50;99.90
70076;DHT22;63241;51.056;3.698;2023-03-21T01:04:42;11.50;99.90
70076;DHT22;63241;51.056;3.698;2023-03-21T01:07:10;11.40;99.90
70076;DHT22;63241;51.056;3.698;2023-03-21T01:09:38;11.40;99.90
70076;DHT22;63241;51.056;3.698;2023-03-21T01:12:06;11.40;99.90
70076;DHT22;63241;51.056;3.698;2023-03-21T01:14:34;11.30;99.90
70076;DHT22;63241;51.056;3.698;2023-03-21T01:17:02;11.30;99.90
70076;DHT22;63241;51.056;3.698;2023-03-21T01:19:29;11.20;99.90
70076;DHT22;63241;51.056;3.698;2023-03-21T01:21:58;11.20;99.90
70076;DHT22;63241;51.056;3.698;2023-03-21T01:24:25;11.20;99.90
70076;DHT22;63241;51.056;3.698;2023-03-21T01:26:53;11.20;99.90
70076;DHT22;63241;51.056;3.698;2023-03-21T01:29:21;11.20;99.90
70076;DHT22;63241;51.056;3.698;2023-03-21T01:31:49;11.20;99.90
70076;DHT22;63241;51.056;3.698;2023-03-21T01:34:17;11.20;99.90
70076;DHT22;63241;51.056;3.698;2023-03-21T01:36:45;11.20;99.90
70076;DHT22;63241;51.056;3.698;2023-03-21T01:39:13;11.10;99.90
70076;DHT22;63241;51.056;3.698;2023-03-21T01:41:41;11.00;99.90
70076;DHT22;63241;51.056;3.698;2023-03-21T01:44:15;11.10;99.90
70076;DHT22;63241;51.056;3.698;2023-03-21T01:49:14;11.20;99.90
70076;DHT22;63241;51.056;3.698;2023-03-21T01:51:45;11.20;99.90
70076;DHT22;63241;51.056;3.698;2023-03-21T01:54:20;11.30;99.90
70076;DHT22;63241;51.056;3.698;2023-03-21T01:56:49;11.20;99.90
70076;DHT22;63241;51.056;3.698;2023-03-21T01:59:28;11.10;99.90
70076;DHT22;63241;51.056;3.698;2023-03-21T02:01:59;11.10;99.90
70076;DHT22;63241;51.056;3.698;2023-03-21T02:04:29;11.00;99.90
70076;DHT22;63241;51.056;3.698;2023-03-21T02:07:06;11.00;99.90
70076;DHT22;63241;51.056;3.698;2023-03-21T02:47:17;10.90;99.90
70076;DHT22;63241;51.056;3.698;2023-03-21T02:49:57;10.90;99.90
70076;DHT22;63241;51.056;3.698;2023-03-21T02:52:47;11.00;99.90
70076;DHT22;63241;51.056;3.698;2023-03-21T02:55:26;11.10;99.90
70076;DHT22;63241;51.056;3.698;2023-03-21T02:57:56;11.10;99.90
70076;DHT22;63241;51.056;3.698;2023-03-21T03:00:31;11.00;99.90
70076;DHT22;63241;51.056;3.698;2023-03-21T03:02:55;11.10;99.90
70076;DHT22;63241;51.056;3.698;2023-03-21T03:05:59;11.00;99.90
70076;DHT22;63241;51.056;3.698;2023-03-21T03:11:23;11.00;99.90
70076;DHT22;63241;51.056;3.698;2023-03-21T03:14:17;11.00;99.90
70076;DHT22;63241;51.056;3.698;2023-03-21T03:16:49;11.10;99.90
70076;DHT22;63241;51.056;3.698;2023-03-21T03:51:34;11.50;99.90
70076;DHT22;63241;51.056;3.698;2023-03-21T03:54:06;11.40;99.90
70076;DHT22;63241;51.056;3.698;2023-03-21T03:56:34;11.40;99.90
70076;DHT22;63241;51.056;3.698;2023-03-21T04:03:04;11.50;99.90
70076;DHT22;63241;51.056;3.698;2023-03-21T04:05:32;11.40;99.90
70076;DHT22;63241;51.056;3.698;2023-03-21T04:08:00;11.50;99.90
70076;DHT22;63241;51.056;3.698;2023-03-21T04:10:28;11.50;99.90
70076;DHT22;63241;51.056;3.698;2023-03-21T04:13:22;11.50;99.90
70076;DHT22;63241;51.056;3.698;2023-03-21T04:16:24;11.40;99.90
70076;DHT22;63241;51.056;3.698;2023-03-21T04:18:53;11.30;99.90
70076;DHT22;63241;51.056;3.698;2023-03-21T04:21:21;11.20;99.90
70076;DHT22;63241;51.056;3.698;2023-03-21T04:23:49;11.30;99.90
70076;DHT22;63241;51.056;3.698;2023-03-21T04:32:33;11.10;99.90
70076;DHT22;63241;51.056;3.698;2023-03-21T04:35:02;11.10;99.90
70076;DHT22;63241;51.056;3.698;2023-03-21T04:37:30;11.00;99.90
70076;DHT22;63241;51.056;3.698;2023-03-21T04:43:54;10.70;99.90
70076;DHT22;63241;51.056;3.698;2023-03-21T04:46:22;10.60;99.90
70076;DHT22;63241;51.056;3.698;2023-03-21T04:48:50;10.60;99.90
70076;DHT22;63241;51.056;3.698;2023-03-21T04:51:18;10.60;99.90
70076;DHT22;63241;51.056;3.698;2023-03-21T04:54:12;10.60;99.90
70076;DHT22;63241;51.056;3.698;2023-03-21T04:57:30;10.60;99.90
70076;DHT22;63241;51.056;3.698;2023-03-21T04:59:58;10.50;99.90
70076;DHT22;63241;51.056;3.698;2023-03-21T05:02:25;10.50;99.90
70076;DHT22;63241;51.056;3.698;2023-03-21T05:04:53;10.60;99.90
70076;DHT22;63241;51.056;3.698;2023-03-21T05:11:18;10.40;99.90
70076;DHT22;63241;51.056;3.698;2023-03-21T05:13:45;10.30;99.90
70076;DHT22;63241;51.056;3.698;2023-03-21T05:16:13;10.30;99.90
70076;DHT22;63241;51.056;3.698;2023-03-21T05:18:41;10.30;99.90
70076;DHT22;63241;51.056;3.698;2023-03-21T05:21:32;10.30;99.90
70076;DHT22;63241;51.056;3.698;2023-03-21T05:24:34;10.20;99.90
70076;DHT22;63241;51.056;3.698;2023-03-21T05:27:04;10.20;99.90
70076;DHT22;63241;51.056;3.698;2023-03-21T05:29:32;10.10;99.90
70076;DHT22;63241;51.056;3.698;2023-03-21T05:32:00;10.10;99.90
70076;DHT22;63241;51.056;3.698;2023-03-21T05:40:49;10.00;99.90
70076;DHT22;63241;51.056;3.698;2023-03-21T05:43:17;10.00;99.90
70076;DHT22;63241;51.056;3.698;2023-03-21T05:45:45;10.00;99.90
70076;DHT22;63241;51.056;3.698;2023-03-21T05:48:29;10.10;99.90
70076;DHT22;63241;51.056;3.698;2023-03-21T05:54:20;10.20;99.90
70076;DHT22;63241;51.056;3.698;2023-03-21T05:56:48;10.10;99.90
70076;DHT22;63241;51.056;3.698;2023-03-21T05:59:15;10.10;99.90
70076;DHT22;63241;51.056;3.698;2023-03-21T06:01:51;10.10;99.90
70076;DHT22;63241;51.056;3.698;2023-03-21T06:04:40;10.10;99.90
70076;DHT22;63241;51.056;3.698;2023-03-21T06:07:21;10.20;99.90
70076;DHT22;63241;51.056;3.698;2023-03-21T06:09:49;10.10;99.90
70076;DHT22;63241;51.056;3.698;2023-03-21T06:12:17;10.20;99.90
70076;DHT22;63241;51.056;3.698;2023-03-21T06:14:44;10.20;99.90
70076;DHT22;63241;51.056;3.698;2023-03-21T06:21:04;10.30;99.90
70076;DHT22;63241;51.056;3.698;2023-03-21T06:23:32;10.30;99.90
70076;DHT22;63241;51.056;3.698;2023-03-21T06:26:00;10.20;99.90
70076;DHT22;63241;51.056;3.698;2023-03-21T06:28:27;10.30;99.90
70076;DHT22;63241;51.056;3.698;2023-03-21T06:34:49;10.50;99.90
70076;DHT22;63241;51.056;3.698;2023-03-21T06:37:18;10.50;99.90
70076;DHT22;63241;51.056;3.698;2023-03-21T06:39:46;10.50;99.90
70076;DHT22;63241;51.056;3.698;2023-03-21T06:42:14;10.60;99.90
70076;DHT22;63241;51.056;3.698;2023-03-21T06:48:43;10.60;99.90
70076;DHT22;63241;51.056;3.698;2023-03-21T06:51:13;10.60;99.90
70076;DHT22;63241;51.056;3.698;2023-03-21T06:53:41;10.60;99.90
70076;DHT22;63241;51.056;3.698;2023-03-21T06:56:11;10.70;99.90
70076;DHT22;63241;51.056;3.698;2023-03-21T06:59:18;10.80;99.90
70076;DHT22;63241;51.056;3.698;2023-03-21T07:02:11;10.90;99.90
70076;DHT22;63241;51.056;3.698;2023-03-21T07:04:38;11.00;99.90
70076;DHT22;63241;51.056;3.698;2023-03-21T07:07:06;11.10;99.90
70076;DHT22;63241;51.056;3.698;2023-03-21T07:09:34;11.10;99.90
70076;DHT22;63241;51.056;3.698;2023-03-21T07:15:44;11.00;99.90
70076;DHT22;63241;51.056;3.698;2023-03-21T07:18:12;11.10;99.90
70076;DHT22;63241;51.056;3.698;2023-03-21T07:20:40;11.10;99.90
70076;DHT22;63241;51.056;3.698;2023-03-21T07:23:07;11.10;99.90
70076;DHT22;63241;51.056;3.698;2023-03-21T07:29:21;11.30;99.90
70076;DHT22;63241;51.056;3.698;2023-03-21T07:31:50;11.50;99.90
70076;DHT22;63241;51.056;3.698;2023-03-21T07:34:18;11.60;99.90
70076;DHT22;63241;51.056;3.698;2023-03-21T07:36:46;11.60;99.90
70076;DHT22;63241;51.056;3.698;2023-03-21T07:43:05;11.80;99.90
70076;DHT22;63241;51.056;3.698;2023-03-21T07:45:33;12.00;99.90
70076;DHT22;63241;51.056;3.698;2023-03-21T07:48:01;12.10;99.90
70076;DHT22;63241;51.056;3.698;2023-03-21T07:50:29;12.30;99.90
70076;DHT22;63241;51.056;3.698;2023-03-21T07:56:25;12.50;99.90
70076;DHT22;63241;51.056;3.698;2023-03-21T07:58:52;12.50;99.90
70076;DHT22;63241;51.056;3.698;2023-03-21T08:01:20;12.50;99.90
70076;DHT22;63241;51.056;3.698;2023-03-21T08:03:48;12.50;99.90
70076;DHT22;63241;51.056;3.698;2023-03-21T08:10:19;12.50;99.90
70076;DHT22;63241;51.056;3.698;2023-03-21T08:12:46;12.70;99.90
70076;DHT22;63241;51.056;3.698;2023-03-21T08:15:15;12.80;99.90
70076;DHT22;63241;51.056;3.698;2023-03-21T08:17:43;13.10;99.90
70076;DHT22;63241;51.056;3.698;2023-03-21T08:24:04;13.80;99.90
70076;DHT22;63241;51.056;3.698;2023-03-21T08:26:32;14.00;99.90
70076;DHT22;63241;51.056;3.698;2023-03-21T08:29:00;14.20;99.90
70076;DHT22;63241;51.056;3.698;2023-03-21T08:31:28;14.20;99.90
70076;DHT22;63241;51.056;3.698;2023-03-21T08:37:44;14.60;99.90
70076;DHT22;63241;51.056;3.698;2023-03-21T08:40:14;15.10;99.90
70076;DHT22;63241;51.056;3.698;2023-03-21T08:42:43;15.20;99.90
70076;DHT22;63241;51.056;3.698;2023-03-21T08:45:14;15.10;99.90
70076;DHT22;63241;51.056;3.698;2023-03-21T08:51:34;15.20;99.90
70076;DHT22;63241;51.056;3.698;2023-03-21T08:54:03;15.30;99.90
70076;DHT22;63241;51.056;3.698;2023-03-21T08:56:31;15.00;99.90
70076;DHT22;63241;51.056;3.698;2023-03-21T08:58:58;14.80;99.90
70076;DHT22;63241;51.056;3.698;2023-03-21T09:04:57;14.60;99.90
70076;DHT22;63241;51.056;3.698;2023-03-21T09:07:25;14.40;99.90
70076;DHT22;63241;51.056;3.698;2023-03-21T09:09:53;14.40;99.90
70076;DHT22;63241;51.056;3.698;2023-03-21T09:12:21;14.40;99.90
70076;DHT22;63241;51.056;3.698;2023-03-21T09:14:49;14.30;99.90
70076;DHT22;63241;51.056;3.698;2023-03-21T09:17:16;14.20;99.90
70076;DHT22;63241;51.056;3.698;2023-03-21T09:19:44;14.20;99.90
70076;DHT22;63241;51.056;3.698;2023-03-21T09:22:15;14.20;99.90
70076;DHT22;63241;51.056;3.698;2023-03-21T09:24:47;14.10;99.90
70076;DHT22;63241;51.056;3.698;2023-03-21T09:27:18;13.90;99.90
70076;DHT22;63241;51.056;3.698;2023-03-21T09:29:50;14.00;99.90
70076;DHT22;63241;51.056;3.698;2023-03-21T09:32:19;14.20;99.90
70076;DHT22;63241;51.056;3.698;2023-03-21T09:34:47;14.30;99.90
70076;DHT22;63241;51.056;3.698;2023-03-21T09:37:17;14.50;99.90
70076;DHT22;63241;51.056;3.698;2023-03-21T09:39:46;14.60;99.90
70076;DHT22;63241;51.056;3.698;2023-03-21T09:45:24;15.10;99.90
70076;DHT22;63241;51.056;3.698;2023-03-21T09:47:53;15.20;99.90
70076;DHT22;63241;51.056;3.698;2023-03-21T09:50:35;15.30;99.90
70076;DHT22;63241;51.056;3.698;2023-03-21T09:53:32;15.50;99.90
70076;DHT22;63241;51.056;3.698;2023-03-21T09:55:46;15.70;99.90
70076;DHT22;63241;51.056;3.698;2023-03-21T09:58:32;15.60;99.90
70076;DHT22;63241;51.056;3.698;2023-03-21T10:01:16;15.90;99.90
70076;DHT22;63241;51.056;3.698;2023-03-21T10:04:00;16.40;99.90
70076;DHT22;63241;51.056;3.698;2023-03-21T10:06:30;16.50;99.90
70076;DHT22;63241;51.056;3.698;2023-03-21T10:09:05;16.40;98.90
70076;DHT22;63241;51.056;3.698;2023-03-21T10:11:42;16.20;98.40
70076;DHT22;63241;51.056;3.698;2023-03-21T10:14:21;16.30;98.40
70076;DHT22;63241;51.056;3.698;2023-03-21T10:16:51;16.40;98.90
70076;DHT22;63241;51.056;3.698;2023-03-21T10:19:25;16.20;96.90
70076;DHT22;63241;51.056;3.698;2023-03-21T10:21:50;16.00;96.30
70076;DHT22;63241;51.056;3.698;2023-03-21T10:24:21;15.50;97.20
70076;DHT22;63241;51.056;3.698;2023-03-21T10:26:50;15.10;97.90
70076;DHT22;63241;51.056;3.698;2023-03-21T10:29:21;14.70;99.10
70076;DHT22;63241;51.056;3.698;2023-03-21T10:31:51;14.60;99.90
70076;DHT22;63241;51.056;3.698;2023-03-21T10:34:27;14.60;99.90
70076;DHT22;63241;51.056;3.698;2023-03-21T10:36:49;15.00;99.90
70076;DHT22;63241;51.056;3.698;2023-03-21T10:39:37;15.60;99.90
70076;DHT22;63241;51.056;3.698;2023-03-21T10:42:11;16.20;98.80
70076;DHT22;63241;51.056;3.698;2023-03-21T10:44:35;16.80;98.40
70076;DHT22;63241;51.056;3.698;2023-03-21T10:47:05;17.70;95.70
70076;DHT22;63241;51.056;3.698;2023-03-21T10:49:35;18.70;92.20
70076;DHT22;63241;51.056;3.698;2023-03-21T10:52:06;19.90;91.40
70076;DHT22;63241;51.056;3.698;2023-03-21T10:54:34;20.70;77.10
70076;DHT22;63241;51.056;3.698;2023-03-21T10:57:10;21.00;71.20
70076;DHT22;63241;51.056;3.698;2023-03-21T10:59:48;21.10;70.10
70076;DHT22;63241;51.056;3.698;2023-03-21T11:02:24;21.30;65.70
70076;DHT22;63241;51.056;3.698;2023-03-21T11:04:54;21.40;63.10
70076;DHT22;63241;51.056;3.698;2023-03-21T11:07:22;20.90;61.40
70076;DHT22;63241;51.056;3.698;2023-03-21T11:09:59;20.20;62.10
70076;DHT22;63241;51.056;3.698;2023-03-21T13:22:28;15.60;94.80
70076;DHT22;63241;51.056;3.698;2023-03-21T13:25:18;15.60;94.60
70076;DHT22;63241;51.056;3.698;2023-03-21T13:27:54;15.30;95.50
70076;DHT22;63241;51.056;3.698;2023-03-21T13:30:24;15.10;97.50
70076;DHT22;63241;51.056;3.698;2023-03-21T13:33:08;15.00;99.10
70076;DHT22;63241;51.056;3.698;2023-03-21T13:35:38;14.90;99.90
70076;DHT22;63241;51.056;3.698;2023-03-21T13:38:17;14.80;99.90
70076;DHT22;63241;51.056;3.698;2023-03-21T13:40:55;14.80;99.90
70076;DHT22;63241;51.056;3.698;2023-03-21T13:43:43;14.70;99.90
70076;DHT22;63241;51.056;3.698;2023-03-21T13:49:12;14.80;99.90
70076;DHT22;63241;51.056;3.698;2023-03-21T14:02:29;14.40;99.90
70076;DHT22;63241;51.056;3.698;2023-03-21T14:05:03;14.30;99.90
70076;DHT22;63241;51.056;3.698;2023-03-21T14:10:19;14.20;99.90
70076;DHT22;63241;51.056;3.698;2023-03-21T14:12:48;14.00;99.90
70076;DHT22;63241;51.056;3.698;2023-03-21T14:18:15;14.10;99.90
70076;DHT22;63241;51.056;3.698;2023-03-21T14:20:43;14.20;99.90
70076;DHT22;63241;51.056;3.698;2023-03-21T14:23:15;14.20;99.90
70076;DHT22;63241;51.056;3.698;2023-03-21T14:25:43;14.40;99.90
70076;DHT22;63241;51.056;3.698;2023-03-21T14:28:27;14.40;99.90
70076;DHT22;63241;51.056;3.698;2023-03-21T14:34:34;14.70;99.90
70076;DHT22;63241;51.056;3.698;2023-03-21T14:37:05;15.00;99.90
70076;DHT22;63241;51.056;3.698;2023-03-21T14:39:32;15.30;99.90
70076;DHT22;63241;51.056;3.698;2023-03-21T14:42:11;15.40;99.90
70076;DHT22;63241;51.056;3.698;2023-03-21T14:45:13;15.40;99.90
70076;DHT22;63241;51.056;3.698;2023-03-21T14:48:13;15.40;99.90
70076;DHT22;63241;51.056;3.698;2023-03-21T14:50:47;15.40;99.90
70076;DHT22;63241;51.056;3.698;2023-03-21T14:53:20;15.40;99.90
70076;DHT22;63241;51.056;3.698;2023-03-21T14:56:01;15.50;99.90
70076;DHT22;63241;51.056;3.698;2023-03-21T15:04:57;15.90;99.90
70076;DHT22;63241;51.056;3.698;2023-03-21T15:07:32;16.10;99.90
70076;DHT22;63241;51.056;3.698;2023-03-21T15:10:06;15.90;99.90
70076;DHT22;63241;51.056;3.698;2023-03-21T15:16:02;15.40;99.90
70076;DHT22;63241;51.056;3.698;2023-03-21T15:18:32;15.20;99.90
70076;DHT22;63241;51.056;3.698;2023-03-21T15:21:03;15.10;99.90
70076;DHT22;63241;51.056;3.698;2023-03-21T15:23:34;15.10;99.90
70076;DHT22;63241;51.056;3.698;2023-03-21T15:31:46;14.80;99.90
70076;DHT22;63241;51.056;3.698;2023-03-21T15:34:23;14.80;99.90
70076;DHT22;63241;51.056;3.698;2023-03-21T15:36:59;14.90;99.90
70076;DHT22;63241;51.056;3.698;2023-03-21T15:43:24;15.00;99.90
70076;DHT22;63241;51.056;3.698;2023-03-21T15:45:55;15.10;99.90
70076;DHT22;63241;51.056;3.698;2023-03-21T15:48:27;15.20;99.90
70076;DHT22;63241;51.056;3.698;2023-03-21T15:51:04;15.20;99.90
70076;DHT22;63241;51.056;3.698;2023-03-21T15:57:31;15.20;99.90
70076;DHT22;63241;51.056;3.698;2023-03-21T16:02:46;15.10;99.90
70076;DHT22;63241;51.056;3.698;2023-03-21T16:05:38;15.20;99.90
70076;DHT22;63241;51.056;3.698;2023-03-21T16:11:23;15.30;99.90
70076;DHT22;63241;51.056;3.698;2023-03-21T16:13:48;15.20;99.90
70076;DHT22;63241;51.056;3.698;2023-03-21T16:16:19;15.20;99.90
70076;DHT22;63241;51.056;3.698;2023-03-21T16:18:48;15.20;99.90
70076;DHT22;63241;51.056;3.698;2023-03-21T16:24:40;15.10;99.90
70076;DHT22;63241;51.056;3.698;2023-03-21T16:27:10;15.20;99.90
70076;DHT22;63241;51.056;3.698;2023-03-21T16:29:38;15.10;99.90
70076;DHT22;63241;51.056;3.698;2023-03-21T16:32:14;15.00;99.90
70076;DHT22;63241;51.056;3.698;2023-03-21T16:34:43;15.00;99.90
70076;DHT22;63241;51.056;3.698;2023-03-21T16:37:12;15.00;99.90
70076;DHT22;63241;51.056;3.698;2023-03-21T16:39:44;15.10;99.90
70076;DHT22;63241;51.056;3.698;2023-03-21T16:42:12;15.10;99.90
70076;DHT22;63241;51.056;3.698;2023-03-21T16:44:40;15.00;99.90
70076;DHT22;63241;51.056;3.698;2023-03-21T16:47:16;14.90;99.90
70076;DHT22;63241;51.056;3.698;2023-03-21T16:49:45;14.80;99.90
70076;DHT22;63241;51.056;3.698;2023-03-21T16:52:13;14.70;99.90
70076;DHT22;63241;51.056;3.698;2023-03-21T16:54:42;14.80;99.90
70076;DHT22;63241;51.056;3.698;2023-03-21T16:57:24;14.80;99.90
70076;DHT22;63241;51.056;3.698;2023-03-21T16:59:51;14.90;99.90
70076;DHT22;63241;51.056;3.698;2023-03-21T17:02:19;14.80;99.90
70076;DHT22;63241;51.056;3.698;2023-03-21T17:04:47;14.70;99.90
70076;DHT22;63241;51.056;3.698;2023-03-21T17:07:15;14.70;99.90
70076;DHT22;63241;51.056;3.698;2023-03-21T17:09:43;14.60;99.90
70076;DHT22;63241;51.056;3.698;2023-03-21T17:12:13;14.60;99.90
70076;DHT22;63241;51.056;3.698;2023-03-21T17:14:42;14.60;99.90
70076;DHT22;63241;51.056;3.698;2023-03-21T17:17:12;14.50;99.90
70076;DHT22;63241;51.056;3.698;2023-03-21T17:19:41;14.50;99.90
70076;DHT22;63241;51.056;3.698;2023-03-21T17:22:09;14.50;99.90
70076;DHT22;63241;51.056;3.698;2023-03-21T17:24:37;14.50;99.90
70076;DHT22;63241;51.056;3.698;2023-03-21T17:27:07;14.60;99.90
70076;DHT22;63241;51.056;3.698;2023-03-21T17:29:34;14.60;99.90
70076;DHT22;63241;51.056;3.698;2023-03-21T17:32:02;14.60;99.90
70076;DHT22;63241;51.056;3.698;2023-03-21T17:34:29;14.60;99.90
70076;DHT22;63241;51.056;3.698;2023-03-21T17:36:58;14.60;99.90
70076;DHT22;63241;51.056;3.698;2023-03-21T17:39:26;14.50;99.90
70076;DHT22;63241;51.056;3.698;2023-03-21T17:41:54;14.60;99.90
70076;DHT22;63241;51.056;3.698;2023-03-21T17:44:22;14.60;99.90
70076;DHT22;63241;51.056;3.698;2023-03-21T17:46:50;14.60;99.90
70076;DHT22;63241;51.056;3.698;2023-03-21T17:49:18;14.50;99.90
70076;DHT22;63241;51.056;3.698;2023-03-21T17:51:46;14.40;99.90
70076;DHT22;63241;51.056;3.698;2023-03-21T17:54:14;14.30;99.90
70076;DHT22;63241;51.056;3.698;2023-03-21T17:56:42;14.30;99.90
70076;DHT22;63241;51.056;3.698;2023-03-21T17:59:12;14.00;99.90
70076;DHT22;63241;51.056;3.698;2023-03-21T18:01:40;13.80;99.90
70076;DHT22;63241;51.056;3.698;2023-03-21T18:04:08;13.70;99.90
70076;DHT22;63241;51.056;3.698;2023-03-21T18:06:36;13.50;99.90
70076;DHT22;63241;51.056;3.698;2023-03-21T18:09:05;13.30;99.90
70076;DHT22;63241;51.056;3.698;2023-03-21T18:11:34;13.30;99.90
70076;DHT22;63241;51.056;3.698;2023-03-21T18:14:02;13.20;99.90
70076;DHT22;63241;51.056;3.698;2023-03-21T18:16:30;13.20;99.90
70076;DHT22;63241;51.056;3.698;2023-03-21T18:18:58;13.10;99.90
70076;DHT22;63241;51.056;3.698;2023-03-21T18:21:26;13.00;99.90
70076;DHT22;63241;51.056;3.698;2023-03-21T18:23:54;12.90;99.90
70076;DHT22;63241;51.056;3.698;2023-03-21T18:26:22;12.80;99.90
70076;DHT22;63241;51.056;3.698;2023-03-21T18:28:50;12.70;99.90
70076;DHT22;63241;51.056;3.698;2023-03-21T18:31:18;12.60;99.90
70076;DHT22;63241;51.056;3.698;2023-03-21T18:33:47;12.60;99.90
70076;DHT22;63241;51.056;3.698;2023-03-21T18:36:18;12.50;99.90
70076;DHT22;63241;51.056;3.698;2023-03-21T18:38:47;12.40;99.90
70076;DHT22;63241;51.056;3.698;2023-03-21T18:41:16;12.30;99.90
70076;DHT22;63241;51.056;3.698;2023-03-21T18:43:48;12.30;99.90
70076;DHT22;63241;51.056;3.698;2023-03-21T18:46:16;12.20;99.90
70076;DHT22;63241;51.056;3.698;2023-03-21T18:48:44;12.10;99.90
70076;DHT22;63241;51.056;3.698;2023-03-21T18:51:11;12.00;99.90
70076;DHT22;63241;51.056;3.698;2023-03-21T18:53:39;11.90;99.90
70076;DHT22;63241;51.056;3.698;2023-03-21T18:56:07;11.90;99.90
70076;DHT22;63241;51.056;3.698;2023-03-21T18:58:35;11.90;99.90
70076;DHT22;63241;51.056;3.698;2023-03-21T19:01:03;11.70;99.90
70076;DHT22;63241;51.056;3.698;2023-03-21T19:03:31;11.70;99.90
70076;DHT22;63241;51.056;3.698;2023-03-21T19:05:59;11.60;99.90
70076;DHT22;63241;51.056;3.698;2023-03-21T19:08:27;11.60;99.90
70076;DHT22;63241;51.056;3.698;2023-03-21T19:10:54;11.60;99.90
70076;DHT22;63241;51.056;3.698;2023-03-21T19:13:22;11.60;99.90
70076;DHT22;63241;51.056;3.698;2023-03-21T19:15:50;11.50;99.90
70076;DHT22;63241;51.056;3.698;2023-03-21T19:18:18;11.40;99.90
70076;DHT22;63241;51.056;3.698;2023-03-21T19:20:46;11.50;99.90
70076;DHT22;63241;51.056;3.698;2023-03-21T19:23:14;11.40;99.90
70076;DHT22;63241;51.056;3.698;2023-03-21T19:25:42;11.50;99.90
70076;DHT22;63241;51.056;3.698;2023-03-21T19:28:10;11.40;99.90
70076;DHT22;63241;51.056;3.698;2023-03-21T19:30:38;11.40;99.90
70076;DHT22;63241;51.056;3.698;2023-03-21T19:33:06;11.40;99.90
70076;DHT22;63241;51.056;3.698;2023-03-21T19:35:34;11.30;99.90
70076;DHT22;63241;51.056;3.698;2023-03-21T19:38:03;11.30;99.90
70076;DHT22;63241;51.056;3.698;2023-03-21T19:40:31;11.20;99.90
70076;DHT22;63241;51.056;3.698;2023-03-21T19:42:59;11.20;99.90
70076;DHT22;63241;51.056;3.698;2023-03-21T19:45:26;11.20;99.90
70076;DHT22;63241;51.056;3.698;2023-03-21T19:47:54;11.20;99.90
70076;DHT22;63241;51.056;3.698;2023-03-21T19:50:22;11.10;99.90
70076;DHT22;63241;51.056;3.698;2023-03-21T19:52:52;11.00;99.90
70076;DHT22;63241;51.056;3.698;2023-03-21T19:55:19;10.90;99.90
70076;DHT22;63241;51.056;3.698;2023-03-21T19:57:47;10.90;99.90
70076;DHT22;63241;51.056;3.698;2023-03-21T20:00:16;10.90;99.90
70076;DHT22;63241;51.056;3.698;2023-03-21T20:02:44;10.80;99.90
70076;DHT22;63241;51.056;3.698;2023-03-21T20:05:14;10.80;99.90
70076;DHT22;63241;51.056;3.698;2023-03-21T20:07:42;10.70;99.90
70076;DHT22;63241;51.056;3.698;2023-03-21T20:10:10;10.70;99.90
70076;DHT22;63241;51.056;3.698;2023-03-21T20:12:39;10.70;99.90
70076;DHT22;63241;51.056;3.698;2023-03-21T20:15:07;10.70;99.90
